createdAt,value
2019-05-30T00:01:17.000Z,4
2019-05-30T00:04:46.000Z,3.6
2019-05-30T00:08:11.000Z,3.7
2019-05-30T00:11:36.000Z,3.6
2019-05-30T00:15:02.000Z,3.6
2019-05-30T00:18:26.000Z,8.2
2019-05-30T00:21:54.000Z,6.4
2019-05-30T00:25:25.000Z,5.2
2019-05-30T00:29:00.000Z,3.9
2019-05-30T00:32:25.000Z,3.9
2019-05-30T00:35:53.000Z,3.6
2019-05-30T00:39:21.000Z,4.5
2019-05-30T00:42:54.000Z,5.2
2019-05-30T00:46:19.000Z,4.3
2019-05-30T00:49:52.000Z,4.6
2019-05-30T00:53:27.000Z,5.6
2019-05-30T00:56:59.000Z,5
2019-05-30T01:00:41.000Z,7.8
2019-05-30T01:04:09.000Z,5.6
2019-05-30T01:07:42.000Z,3.9
2019-05-30T01:11:16.000Z,5.9
2019-05-30T01:14:51.000Z,5.2
2019-05-30T01:18:33.000Z,3.8
2019-05-30T01:22:06.000Z,4.3
2019-05-30T01:25:40.000Z,4.1
2019-05-30T01:29:16.000Z,4.6
2019-05-30T01:33:02.000Z,6.7
2019-05-30T01:36:39.000Z,4.1
2019-05-30T01:40:10.000Z,4.9
2019-05-30T01:45:43.000Z,4.5
2019-05-30T01:49:06.000Z,5.2
2019-05-30T01:52:29.000Z,4.8
2019-05-30T01:55:53.000Z,6.1
2019-05-30T01:59:18.000Z,5.2
2019-05-30T02:02:41.000Z,4.9
2019-05-30T02:06:04.000Z,5.1
2019-05-30T02:09:27.000Z,7.2
2019-05-30T02:12:49.000Z,7.6
2019-05-30T02:16:14.000Z,5.7
2019-05-30T02:19:38.000Z,7.3
2019-05-30T02:23:01.000Z,6.2
2019-05-30T02:26:28.000Z,4.9
2019-05-30T02:29:51.000Z,7.3
2019-05-30T02:33:34.000Z,8.5
2019-05-30T02:37:01.000Z,8
2019-05-30T02:40:28.000Z,6.1
2019-05-30T02:43:51.000Z,8
2019-05-30T02:47:18.000Z,7.2
2019-05-30T02:50:52.000Z,8.6
2019-05-30T02:54:17.000Z,9.3
2019-05-30T02:57:41.000Z,6.1
2019-05-30T03:01:07.000Z,7.4
2019-05-30T03:04:31.000Z,8.2
2019-05-30T03:07:57.000Z,7.5
2019-05-30T03:11:24.000Z,6.3
2019-05-30T03:14:52.000Z,10.6
2019-05-30T03:18:20.000Z,8.5
2019-05-30T03:21:44.000Z,9.3
2019-05-30T03:25:10.000Z,7.1
2019-05-30T03:28:35.000Z,9.2
2019-05-30T03:32:22.000Z,7.3
2019-05-30T03:36:23.000Z,7.3
2019-05-30T03:39:50.000Z,7.7
2019-05-30T03:43:18.000Z,6.2
2019-05-30T03:46:44.000Z,8.1
2019-05-30T03:50:09.000Z,7.1
2019-05-30T03:53:36.000Z,7.9
2019-05-30T04:01:02.000Z,7.6
2019-05-30T04:04:26.000Z,5.6
2019-05-30T04:07:49.000Z,8.4
2019-05-30T04:11:18.000Z,7.9
2019-05-30T04:14:42.000Z,5.5
2019-05-30T04:18:07.000Z,6.2
2019-05-30T04:21:32.000Z,8.2
2019-05-30T04:24:55.000Z,5.2
2019-05-30T04:28:18.000Z,5.1
2019-05-30T04:31:41.000Z,6.4
2019-05-30T04:37:28.000Z,5.5
2019-05-30T04:40:51.000Z,5.3
2019-05-30T04:44:14.000Z,10.3
2019-05-30T04:47:37.000Z,10.7
2019-05-30T04:51:01.000Z,8.8
2019-05-30T04:54:26.000Z,7.3
2019-05-30T04:57:50.000Z,7.9
2019-05-30T05:01:15.000Z,10.4
2019-05-30T05:04:39.000Z,7.3
2019-05-30T05:08:05.000Z,9.3
2019-05-30T05:11:30.000Z,5.3
2019-05-30T05:14:53.000Z,11.5
2019-05-30T05:18:29.000Z,7.3
2019-05-30T05:21:51.000Z,8.1
2019-05-30T05:25:17.000Z,8.4
2019-05-30T05:28:44.000Z,12.7
2019-05-30T05:32:11.000Z,13
2019-05-30T05:35:53.000Z,6.4
2019-05-30T05:39:22.000Z,7.5
2019-05-30T05:42:46.000Z,9.1
2019-05-30T05:46:15.000Z,6.7
2019-05-30T05:49:41.000Z,9.2
2019-05-30T05:53:06.000Z,9.9
2019-05-30T05:56:34.000Z,8.3
2019-05-30T06:00:01.000Z,10.8
2019-05-30T06:03:27.000Z,8
2019-05-30T06:07:00.000Z,9.2
2019-05-30T06:10:27.000Z,9.6
2019-05-30T06:13:54.000Z,9.8
2019-05-30T06:17:18.000Z,8.3
2019-05-30T06:20:45.000Z,11.3
2019-05-30T06:24:15.000Z,10.4
2019-05-30T06:27:51.000Z,10.4
2019-05-30T06:31:21.000Z,10.8
2019-05-30T06:34:55.000Z,9.7
2019-05-30T06:38:27.000Z,7.9
2019-05-30T06:41:58.000Z,7
2019-05-30T06:45:25.000Z,6.7
2019-05-30T06:48:57.000Z,7.3
2019-05-30T06:52:26.000Z,5.8
2019-05-30T06:56:04.000Z,5.8
2019-05-30T06:59:31.000Z,6.5
2019-05-30T07:03:02.000Z,4.4
2019-05-30T07:06:47.000Z,6.5
2019-05-30T07:10:20.000Z,6.9
2019-05-30T07:13:53.000Z,8.9
2019-05-30T07:17:23.000Z,6
2019-05-30T07:20:55.000Z,5.6
2019-05-30T07:24:34.000Z,7.6
2019-05-30T07:28:10.000Z,5.2
2019-05-30T07:31:45.000Z,6.6
2019-05-30T07:35:26.000Z,4.8
2019-05-30T07:39:01.000Z,4.2
2019-05-30T07:42:35.000Z,5.5
2019-05-30T07:46:05.000Z,5
2019-05-30T07:49:43.000Z,7.6
2019-05-30T07:53:20.000Z,4.5
2019-05-30T07:56:52.000Z,5.7
2019-05-30T08:00:33.000Z,5.1
2019-05-30T08:04:20.000Z,6.1
2019-05-30T08:08:01.000Z,6.1
2019-05-30T08:11:41.000Z,4.9
2019-05-30T08:15:23.000Z,6.4
2019-05-30T08:26:42.000Z,6.6
2019-05-30T08:30:05.000Z,6.1
2019-05-30T08:33:30.000Z,5.8
2019-05-30T08:36:53.000Z,4.8
2019-05-30T08:40:15.000Z,6.5
2019-05-30T08:43:40.000Z,5.2
2019-05-30T08:47:03.000Z,5.7
2019-05-30T08:50:28.000Z,5.2
2019-05-30T08:53:56.000Z,8.5
2019-05-30T08:57:20.000Z,4.9
2019-05-30T09:00:46.000Z,4.9
2019-05-30T09:04:09.000Z,4.7
2019-05-30T09:07:55.000Z,4.7
2019-05-30T09:11:18.000Z,5
2019-05-30T09:14:43.000Z,4.4
2019-05-30T09:18:07.000Z,5.6
2019-05-30T09:21:32.000Z,5.5
2019-05-30T09:24:58.000Z,4.3
2019-05-30T09:28:21.000Z,8
2019-05-30T09:31:45.000Z,5
2019-05-30T09:35:10.000Z,4.8
2019-05-30T09:38:35.000Z,5.1
2019-05-30T09:42:00.000Z,5.4
2019-05-30T09:45:26.000Z,6.7
2019-05-30T09:48:52.000Z,5.3
2019-05-30T09:52:15.000Z,4.5
2019-05-30T09:55:39.000Z,4.5
2019-05-30T09:59:08.000Z,6.9
2019-05-30T10:02:32.000Z,5.2
2019-05-30T10:05:58.000Z,6.4
2019-05-30T10:09:23.000Z,5
2019-05-30T10:12:51.000Z,3.8
2019-05-30T10:16:18.000Z,5.2
2019-05-30T10:19:49.000Z,3.8
2019-05-30T10:23:16.000Z,6.7
2019-05-30T10:26:44.000Z,4.4
2019-05-30T10:30:08.000Z,3.2
2019-05-30T10:33:38.000Z,5.6
2019-05-30T10:37:07.000Z,4.1
2019-05-30T10:40:32.000Z,4.5
2019-05-30T10:43:57.000Z,3.4
2019-05-30T10:47:25.000Z,4.2
2019-05-30T10:50:54.000Z,3.6
2019-05-30T10:54:28.000Z,4.6
2019-05-30T10:57:56.000Z,3.5
2019-05-30T11:01:22.000Z,3.3
2019-05-30T11:04:53.000Z,5.7
2019-05-30T11:08:21.000Z,7
2019-05-30T11:11:57.000Z,4.8
2019-05-30T11:15:26.000Z,5.5
2019-05-30T11:19:00.000Z,4.7
2019-05-30T11:22:35.000Z,6.6
2019-05-30T11:26:08.000Z,4.8
2019-05-30T11:29:33.000Z,7.1
2019-05-30T11:33:07.000Z,3.8
2019-05-30T11:36:33.000Z,4.2
2019-05-30T11:40:15.000Z,3.3
2019-05-30T11:43:47.000Z,4.2
2019-05-30T11:47:16.000Z,5.7
2019-05-30T11:50:53.000Z,3.7
2019-05-30T11:54:28.000Z,6.5
2019-05-30T11:58:06.000Z,4.1
2019-05-30T12:01:44.000Z,2.5
2019-05-30T12:05:24.000Z,3.3
2019-05-30T12:09:00.000Z,3.7
2019-05-30T12:12:36.000Z,5
2019-05-30T12:16:15.000Z,1.6
2019-05-30T12:19:47.000Z,2.6
2019-05-30T12:23:29.000Z,2
2019-05-30T12:27:07.000Z,2.3
2019-05-30T12:30:40.000Z,1.7
2019-05-30T12:34:28.000Z,3.9
2019-05-30T12:38:07.000Z,2.5
2019-05-30T12:41:46.000Z,3.8
2019-05-30T12:45:35.000Z,3.6
2019-05-30T12:49:07.000Z,3
2019-05-30T12:52:46.000Z,3.7
2019-05-30T12:56:26.000Z,3.4
2019-05-30T12:59:59.000Z,3
2019-05-30T13:03:44.000Z,4
2019-05-30T13:07:22.000Z,4
2019-05-30T13:10:57.000Z,4.9
2019-05-30T13:15:50.000Z,4.1
2019-05-30T13:19:16.000Z,4.9
2019-05-30T13:22:39.000Z,3.6
2019-05-30T13:26:03.000Z,4.5
2019-05-30T13:29:27.000Z,5.1
2019-05-30T13:32:50.000Z,3.6
2019-05-30T13:36:13.000Z,5.8
2019-05-30T13:39:36.000Z,3.4
2019-05-30T13:43:01.000Z,4
2019-05-30T13:46:25.000Z,6.8
2019-05-30T13:49:48.000Z,3.9
2019-05-30T13:53:13.000Z,3.4
2019-05-30T13:56:38.000Z,3.5
2019-05-30T14:00:01.000Z,3.1
2019-05-30T14:03:27.000Z,3.6
2019-05-30T14:06:54.000Z,4.4
2019-05-30T14:10:17.000Z,2.7
2019-05-30T14:13:43.000Z,4
2019-05-30T14:17:07.000Z,3.1
2019-05-30T14:20:33.000Z,3.3
2019-05-30T14:24:00.000Z,4.7
2019-05-30T14:27:23.000Z,3.2
2019-05-30T14:30:48.000Z,3.7
2019-05-30T14:34:15.000Z,2.4
2019-05-30T14:37:39.000Z,4.7
2019-05-30T14:41:04.000Z,2.1
2019-05-30T14:44:32.000Z,2
2019-05-30T14:48:00.000Z,2
2019-05-30T14:51:26.000Z,4.3
2019-05-30T14:54:58.000Z,2.5
2019-05-30T14:58:25.000Z,3.5
2019-05-30T15:01:53.000Z,4.4
2019-05-30T15:05:24.000Z,2.9
2019-05-30T15:08:54.000Z,3.7
2019-05-30T15:12:40.000Z,3
2019-05-30T15:16:07.000Z,3.6
2019-05-30T15:19:31.000Z,3.1
2019-05-30T15:23:00.000Z,3.8
2019-05-30T15:26:31.000Z,2.7
2019-05-30T15:29:58.000Z,3.6
2019-05-30T15:33:28.000Z,5.1
2019-05-30T15:36:59.000Z,2.7
2019-05-30T15:40:27.000Z,2.6
2019-05-30T15:44:03.000Z,3.2
2019-05-30T15:47:31.000Z,2.3
2019-05-30T15:50:58.000Z,3.4
2019-05-30T15:54:23.000Z,2
2019-05-30T15:57:53.000Z,4
2019-05-30T16:01:27.000Z,2.6
2019-05-30T16:04:54.000Z,4.4
2019-05-30T16:08:22.000Z,3
2019-05-30T16:11:52.000Z,4.4
2019-05-30T16:15:18.000Z,2.5
2019-05-30T16:18:43.000Z,2.9
2019-05-30T16:22:13.000Z,2.8
2019-05-30T16:25:43.000Z,2.2
2019-05-30T16:29:16.000Z,2.5
2019-05-30T16:32:58.000Z,3.4
2019-05-30T16:36:25.000Z,3
2019-05-30T16:40:04.000Z,4.7
2019-05-30T16:43:37.000Z,3.6
2019-05-30T16:47:12.000Z,3.4
2019-05-30T16:50:48.000Z,2.8
2019-05-30T16:54:21.000Z,3.5
2019-05-30T16:57:49.000Z,3.4
2019-05-30T17:01:27.000Z,2.6
2019-05-30T17:05:00.000Z,3.9
2019-05-30T17:08:41.000Z,3.3
2019-05-30T17:12:25.000Z,1.8
2019-05-30T17:16:08.000Z,1.5
2019-05-30T17:19:46.000Z,2
2019-05-30T17:23:28.000Z,2.7
2019-05-30T17:27:04.000Z,1.7
2019-05-30T17:30:43.000Z,2.5
2019-05-30T17:34:22.000Z,3.8
2019-05-30T17:38:07.000Z,3.1
2019-05-30T17:41:46.000Z,2.6
2019-05-30T17:45:29.000Z,4
2019-05-30T17:49:09.000Z,2.3
2019-05-30T17:52:57.000Z,2.1
2019-05-30T17:56:35.000Z,1.9
2019-05-30T18:00:20.000Z,3.4
2019-05-30T18:05:15.000Z,3.2
2019-05-30T18:08:38.000Z,2.7
2019-05-30T18:12:02.000Z,3.4
2019-05-30T18:15:24.000Z,3.1
2019-05-30T18:18:47.000Z,3.3
2019-05-30T18:22:10.000Z,1.6
2019-05-30T18:25:34.000Z,3.5
2019-05-30T18:28:59.000Z,3.2
2019-05-30T18:32:23.000Z,2.6
2019-05-30T18:35:46.000Z,2.4
2019-05-30T18:39:09.000Z,3.9
2019-05-30T18:42:33.000Z,2.6
2019-05-30T18:45:58.000Z,2.5
2019-05-30T18:49:22.000Z,2.8
2019-05-30T18:52:47.000Z,5.3
2019-05-30T18:56:10.000Z,3.3
2019-05-30T18:59:33.000Z,3.1
2019-05-30T19:02:57.000Z,2.3
2019-05-30T19:06:20.000Z,2.3
2019-05-30T19:09:48.000Z,5
2019-05-30T19:13:26.000Z,5.2
2019-05-30T19:16:52.000Z,4.3
2019-05-30T19:20:21.000Z,2.8
2019-05-30T19:23:46.000Z,2.8
2019-05-30T19:27:16.000Z,2.1
2019-05-30T19:30:39.000Z,2.7
2019-05-30T19:34:06.000Z,3.4
2019-05-30T19:37:30.000Z,2.4
2019-05-30T19:40:57.000Z,2.6
2019-05-30T19:44:22.000Z,2.7
2019-05-30T19:47:49.000Z,3.7
2019-05-30T19:51:18.000Z,3.2
2019-05-30T19:54:44.000Z,3.6
2019-05-30T19:58:09.000Z,3.7
2019-05-30T20:01:35.000Z,2.7
2019-05-30T20:05:03.000Z,3.2
2019-05-30T20:08:32.000Z,4.8
2019-05-30T20:12:16.000Z,2.1
2019-05-30T20:15:41.000Z,3.3
2019-05-30T20:19:12.000Z,3.4
2019-05-30T20:22:54.000Z,2.6
2019-05-30T20:26:21.000Z,3.8
2019-05-30T20:29:52.000Z,3.8
2019-05-30T20:33:19.000Z,5.2
2019-05-30T20:36:46.000Z,4.3
2019-05-30T20:40:15.000Z,4.8
2019-05-30T20:43:49.000Z,2.8
2019-05-30T20:47:21.000Z,4.1
2019-05-30T20:50:50.000Z,2.8
2019-05-30T20:54:18.000Z,4
2019-05-30T20:57:51.000Z,5
2019-05-30T21:01:20.000Z,6.5
2019-05-30T21:04:50.000Z,3.4
2019-05-30T21:08:18.000Z,4.8
2019-05-30T21:11:50.000Z,3.1
2019-05-30T21:15:19.000Z,5.3
2019-05-30T21:18:47.000Z,4.7
2019-05-30T21:22:15.000Z,3.7
2019-05-30T21:25:50.000Z,3.3
2019-05-30T21:29:16.000Z,3
2019-05-30T21:32:53.000Z,3.3
2019-05-30T21:36:30.000Z,3.2
2019-05-30T21:40:01.000Z,4.4
2019-05-30T21:43:37.000Z,5.5
2019-05-30T21:47:13.000Z,3.4
2019-05-30T21:50:49.000Z,4.7
2019-05-30T21:54:28.000Z,4.9
2019-05-30T21:58:03.000Z,3.8
2019-05-30T22:01:42.000Z,5.5
2019-05-30T22:05:28.000Z,3.4
2019-05-30T22:09:05.000Z,3.4
2019-05-30T22:12:48.000Z,3.5
2019-05-30T22:16:44.000Z,3.5
2019-05-30T22:22:46.000Z,3.9
2019-05-30T22:26:29.000Z,3.3
2019-05-30T22:30:11.000Z,4.6
2019-05-30T22:33:52.000Z,3.6
2019-05-30T22:37:30.000Z,5
2019-05-30T22:41:13.000Z,5.2
2019-05-30T22:44:54.000Z,3.7
2019-05-30T22:48:35.000Z,4.2
2019-05-30T22:53:37.000Z,5.5
2019-05-30T22:57:00.000Z,5.3
2019-05-30T23:00:23.000Z,5.1
2019-05-30T23:03:47.000Z,4.3
2019-05-30T23:07:11.000Z,5
2019-05-30T23:10:34.000Z,5.3
2019-05-30T23:13:57.000Z,4
2019-05-30T23:17:21.000Z,4.3
2019-05-30T23:20:46.000Z,11.6
2019-05-30T23:24:10.000Z,4.3
2019-05-30T23:27:33.000Z,4.6
2019-05-30T23:30:56.000Z,5.6
2019-05-30T23:34:19.000Z,5.5
2019-05-30T23:37:43.000Z,4.5
2019-05-30T23:41:08.000Z,4.3
2019-05-30T23:44:32.000Z,4.2
2019-05-30T23:47:55.000Z,4.6
2019-05-30T23:51:19.000Z,5
2019-05-30T23:54:49.000Z,4.6
2019-05-30T23:58:14.000Z,4.6
